createdAt,value
2023-02-09T00:00:29.417Z,2.42
2023-02-09T00:01:29.461Z,2.14
2023-02-09T00:02:29.599Z,2.29
2023-02-09T00:03:29.665Z,2.21
2023-02-09T00:04:29.706Z,2.09
2023-02-09T00:05:29.610Z,2.59
2023-02-09T00:06:29.618Z,2.44
2023-02-09T00:07:29.707Z,2.48
2023-02-09T00:08:29.674Z,2.75
2023-02-09T00:09:29.706Z,2.39
2023-02-09T00:10:29.729Z,2.75
2023-02-09T00:11:29.753Z,1.97
2023-02-09T00:12:29.786Z,2.20
2023-02-09T00:13:29.804Z,2.44
2023-02-09T00:14:29.856Z,2.08
2023-02-09T00:15:29.861Z,2.22
2023-02-09T00:16:29.915Z,2.55
2023-02-09T00:17:29.894Z,2.51
2023-02-09T00:18:29.929Z,2.39
2023-02-09T00:19:31.737Z,2.35
2023-02-09T00:20:29.948Z,2.31
2023-02-09T00:21:29.957Z,2.26
2023-02-09T00:22:29.947Z,2.91
2023-02-09T00:51:29.771Z,2.22
2023-02-09T00:52:29.774Z,2.07
2023-02-09T00:53:29.760Z,2.51
2023-02-09T00:55:29.740Z,2.21
2023-02-09T00:56:29.727Z,2.66
2023-02-09T00:57:29.733Z,2.49
2023-02-09T00:58:29.730Z,2.31
2023-02-09T00:59:29.720Z,2.12
2023-02-09T01:00:29.711Z,2.13
2023-02-09T01:01:29.802Z,2.50
2023-02-09T01:02:30.228Z,1.96
2023-02-09T01:03:29.688Z,2.26
2023-02-09T01:04:29.713Z,2.11
2023-02-09T01:05:29.677Z,2.59
2023-02-09T01:06:29.734Z,2.44
2023-02-09T01:07:29.659Z,2.23
2023-02-09T01:08:29.648Z,2.67
2023-02-09T01:09:29.645Z,2.14
2023-02-09T01:10:29.641Z,2.62
2023-02-09T01:11:29.637Z,2.21
2023-02-09T01:12:29.622Z,2.01
2023-02-09T01:13:29.617Z,2.33
2023-02-09T01:14:29.620Z,2.59
2023-02-09T01:15:29.661Z,2.14
2023-02-09T01:16:29.611Z,2.71
2023-02-09T01:17:30.262Z,2.31
2023-02-09T01:18:29.586Z,2.47
2023-02-09T01:19:29.586Z,3.02
2023-02-09T01:20:29.579Z,2.45
2023-02-09T01:21:29.568Z,2.30
2023-02-09T01:22:29.578Z,2.34
2023-02-09T01:23:29.552Z,2.37
2023-02-09T01:24:29.544Z,2.58
2023-02-09T01:25:30.223Z,2.56
2023-02-09T01:26:29.532Z,2.06
2023-02-09T01:27:29.568Z,2.28
2023-02-09T01:28:29.630Z,2.15
2023-02-09T01:29:29.513Z,2.61
2023-02-09T01:30:29.540Z,2.75
2023-02-09T01:31:29.650Z,2.15
2023-02-09T01:32:29.495Z,2.55
2023-02-09T01:33:29.475Z,2.38
2023-02-09T01:34:29.477Z,2.21
2023-02-09T01:35:32.112Z,2.98
2023-02-09T01:36:29.458Z,2.24
2023-02-09T01:37:29.462Z,2.27
2023-02-09T01:38:29.442Z,2.48
2023-02-09T01:39:29.451Z,2.44
2023-02-09T01:40:29.435Z,2.11
2023-02-09T01:41:29.424Z,2.26
2023-02-09T01:42:29.416Z,2.45
2023-02-09T03:30:28.737Z,2.12
2023-02-09T03:31:28.869Z,2.18
2023-02-09T03:32:28.705Z,2.15
2023-02-09T03:33:28.685Z,2.03
2023-02-09T06:38:36.408Z,1.73
2023-02-09T06:43:36.562Z,2.34
2023-02-09T11:44:45.473Z,3.74
2023-02-09T13:13:45.517Z,3.46
2023-02-09T14:55:45.866Z,2.57
2023-02-09T14:58:45.260Z,3.24
2023-02-09T14:59:45.262Z,2.28
2023-02-09T15:00:45.352Z,2.83
2023-02-09T15:01:45.429Z,2.68
2023-02-09T15:02:45.592Z,2.88
2023-02-09T15:03:45.504Z,2.68
2023-02-09T15:04:45.538Z,3.40
2023-02-09T15:05:45.935Z,2.61
2023-02-09T15:06:45.664Z,2.83
2023-02-09T15:07:45.733Z,2.34
2023-02-09T15:08:45.862Z,2.85
2023-02-09T15:09:45.822Z,3.02
2023-02-09T15:10:45.877Z,2.35
2023-02-09T15:11:45.917Z,2.45
2023-02-09T15:12:45.979Z,2.38
2023-02-09T15:13:46.019Z,2.79
2023-02-09T15:14:46.067Z,3.19
2023-02-09T15:15:46.297Z,2.57
2023-02-09T15:16:46.134Z,2.62
2023-02-09T15:17:46.153Z,2.66
2023-02-09T15:18:46.156Z,3.53
2023-02-09T15:19:46.180Z,3.01
2023-02-09T15:20:46.182Z,3.60
2023-02-09T15:21:52.686Z,3.74
2023-02-09T15:23:46.162Z,4.00
2023-02-09T15:24:46.158Z,3.15
2023-02-09T15:28:46.140Z,4.04
2023-02-09T15:37:46.076Z,3.65
2023-02-09T15:38:46.067Z,3.83
2023-02-09T15:39:46.056Z,3.49
2023-02-09T15:40:46.371Z,3.61
2023-02-09T15:41:46.046Z,3.73
2023-02-09T15:42:46.049Z,3.76
2023-02-09T15:43:46.069Z,3.48
2023-02-09T15:44:46.053Z,4.45
2023-02-09T15:45:46.093Z,3.31
2023-02-09T19:29:55.184Z,3.83
2023-02-09T19:30:55.447Z,3.85
2023-02-09T19:31:55.278Z,3.46
2023-02-09T19:32:55.338Z,3.46
2023-02-09T19:33:55.393Z,3.40
2023-02-09T19:34:55.461Z,3.30
2023-02-09T19:35:55.611Z,3.47
2023-02-09T19:36:55.605Z,3.20
2023-02-09T19:37:55.693Z,3.57
2023-02-09T19:38:55.716Z,3.48
2023-02-09T19:39:55.823Z,3.81
2023-02-09T19:41:09.509Z,3.64
2023-02-09T19:41:56.826Z,3.31
2023-02-09T19:42:55.834Z,3.47
2023-02-09T19:43:55.807Z,2.66
2023-02-09T19:44:55.802Z,3.54
2023-02-09T19:45:55.795Z,4.10
2023-02-09T19:46:55.807Z,3.84
2023-02-09T19:47:56.659Z,3.39
2023-02-09T19:48:55.810Z,3.75
2023-02-09T19:49:55.826Z,3.30
2023-02-09T19:50:56.174Z,3.15
2023-02-09T19:51:55.951Z,3.46
2023-02-09T19:52:56.023Z,3.98
2023-02-09T19:53:56.085Z,3.82
2023-02-09T19:54:57.761Z,3.27
2023-02-09T19:55:56.211Z,3.59
2023-02-09T19:56:56.258Z,3.54
2023-02-09T19:57:56.338Z,4.06
2023-02-09T19:58:56.373Z,4.28
2023-02-09T19:59:56.443Z,3.92
2023-02-09T20:00:56.512Z,3.73
2023-02-09T20:01:56.616Z,3.79
2023-02-09T20:02:56.658Z,3.56
2023-02-09T20:03:56.686Z,3.81
2023-02-09T20:04:56.737Z,3.56
2023-02-09T20:05:56.782Z,3.52
2023-02-09T20:06:56.836Z,3.99
2023-02-09T20:07:56.911Z,3.36
2023-02-09T20:08:56.956Z,3.12
2023-02-09T20:09:57.019Z,3.60
2023-02-09T20:10:57.080Z,3.71
2023-02-09T20:12:57.173Z,3.82
2023-02-09T20:13:57.266Z,4.21
2023-02-09T20:14:57.297Z,3.75
2023-02-09T20:15:57.368Z,3.12
2023-02-09T20:16:57.410Z,3.41
2023-02-09T20:17:57.491Z,3.61
2023-02-09T20:18:57.559Z,3.66
2023-02-09T20:19:57.590Z,3.22
2023-02-09T20:20:57.655Z,3.20
2023-02-09T20:21:57.694Z,3.31
2023-02-09T20:22:57.758Z,2.83
2023-02-09T20:23:57.853Z,3.42
2023-02-09T20:24:57.880Z,3.15
2023-02-09T20:25:57.948Z,3.27
2023-02-09T20:26:58.070Z,3.92
2023-02-09T20:27:58.109Z,3.36
2023-02-09T20:28:58.682Z,3.26
2023-02-09T20:29:58.188Z,3.83
2023-02-09T20:30:58.250Z,3.36
2023-02-09T20:31:58.312Z,3.22
2023-02-09T20:32:58.364Z,3.72
2023-02-09T20:33:58.430Z,3.69
2023-02-09T20:34:58.484Z,3.73
2023-02-09T20:35:58.545Z,3.43
2023-02-09T20:36:58.670Z,3.36
2023-02-09T20:37:58.624Z,3.47
2023-02-09T20:38:58.685Z,3.47
2023-02-09T20:39:58.713Z,3.50
2023-02-09T20:40:58.778Z,3.04
2023-02-09T20:41:58.829Z,3.31
2023-02-09T20:42:58.890Z,3.30
2023-02-09T20:43:59.676Z,3.36
2023-02-09T20:44:58.983Z,3.59
2023-02-09T20:45:59.091Z,3.40
2023-02-09T20:46:59.115Z,3.62
2023-02-09T20:47:59.174Z,3.28
2023-02-09T20:48:59.320Z,3.41
2023-02-09T20:49:59.290Z,3.17
2023-02-09T20:50:59.337Z,3.76
2023-02-09T20:51:59.424Z,2.87
2023-02-09T20:52:59.461Z,3.53
2023-02-09T20:53:59.587Z,3.37
2023-02-09T20:54:59.583Z,4.04
2023-02-09T20:55:59.639Z,3.37
2023-02-09T20:56:59.708Z,3.19
2023-02-09T20:57:59.821Z,3.94
2023-02-09T20:58:59.825Z,3.24
2023-02-09T20:59:59.871Z,3.71
2023-02-09T21:00:59.976Z,3.33
2023-02-09T21:01:59.974Z,3.70
2023-02-09T21:03:00.059Z,3.59
2023-02-09T21:04:00.115Z,4.25
2023-02-09T21:05:00.140Z,3.85
2023-02-09T21:06:00.206Z,3.50
2023-02-09T21:07:00.349Z,2.93
2023-02-09T21:08:00.328Z,3.27
2023-02-09T21:09:00.387Z,3.40
2023-02-09T21:10:00.462Z,3.20
2023-02-09T21:11:00.528Z,3.79
2023-02-09T21:12:00.573Z,3.06
2023-02-09T21:13:00.618Z,3.79
2023-02-09T21:14:00.675Z,3.58
2023-02-09T21:15:01.115Z,3.70
2023-02-09T21:16:02.200Z,3.50
2023-02-09T21:17:00.839Z,2.83
2023-02-09T21:18:00.921Z,3.18
2023-02-09T21:19:00.966Z,3.82
2023-02-09T21:20:01.755Z,3.76
2023-02-09T21:21:01.052Z,3.47
2023-02-09T21:22:01.103Z,4.05
2023-02-09T21:23:01.156Z,3.31
2023-02-09T21:24:01.216Z,2.98
2023-02-09T21:25:01.246Z,3.35
2023-02-09T21:26:01.288Z,3.74
2023-02-09T21:27:01.338Z,3.18
2023-02-09T21:28:01.511Z,3.68
2023-02-09T21:29:01.459Z,3.50
2023-02-09T21:30:01.480Z,3.81
2023-02-09T21:31:01.559Z,2.93
2023-02-09T21:32:01.590Z,3.25
2023-02-09T21:33:01.644Z,3.25
2023-02-09T21:34:01.697Z,3.29
2023-02-09T21:35:01.788Z,2.98
2023-02-09T21:36:01.796Z,3.51
2023-02-09T21:37:01.849Z,3.57
2023-02-09T21:38:01.939Z,3.54
2023-02-09T21:39:01.938Z,3.43
2023-02-09T21:40:02.016Z,3.53
2023-02-09T21:41:02.061Z,3.50
2023-02-09T21:42:02.122Z,3.54
2023-02-09T21:43:02.194Z,3.04
2023-02-09T21:44:02.241Z,3.70
2023-02-09T21:45:02.297Z,3.12
2023-02-09T21:46:02.364Z,3.58
2023-02-09T21:47:02.425Z,3.52
2023-02-09T21:48:02.493Z,3.31
2023-02-09T21:49:02.555Z,3.29
2023-02-09T21:50:02.628Z,3.70
2023-02-09T21:51:02.658Z,3.08
2023-02-09T21:52:02.706Z,3.08
2023-02-09T21:53:02.752Z,3.37
2023-02-09T21:54:02.812Z,3.58
2023-02-09T21:55:02.848Z,3.68
2023-02-09T21:56:03.001Z,3.41
2023-02-09T21:57:02.913Z,3.35
2023-02-09T21:58:02.930Z,3.39
2023-02-09T21:59:02.963Z,3.13
2023-02-09T22:00:03.017Z,3.06
2023-02-09T22:01:03.078Z,3.61
2023-02-09T22:02:03.118Z,3.32
2023-02-09T22:03:03.155Z,3.49
2023-02-09T22:04:03.211Z,3.63
2023-02-09T22:05:03.249Z,3.51
2023-02-09T22:06:03.272Z,3.05
2023-02-09T22:07:03.287Z,3.28
2023-02-09T22:08:03.307Z,3.72
2023-02-09T22:09:03.326Z,3.42
2023-02-09T22:10:03.360Z,3.11
2023-02-09T22:11:03.362Z,2.95
2023-02-09T22:12:03.411Z,4.01
2023-02-09T22:13:03.529Z,3.76
2023-02-09T22:14:03.491Z,2.90
2023-02-09T22:15:03.464Z,2.94
2023-02-09T23:16:05.809Z,3.24
2023-02-09T23:22:05.208Z,3.23
2023-02-09T23:23:05.244Z,3.70
2023-02-09T23:24:05.752Z,2.99
2023-02-09T23:26:05.405Z,3.09
2023-02-09T23:27:05.447Z,3.01
2023-02-09T23:28:05.495Z,3.60
2023-02-09T23:29:05.751Z,3.09
2023-02-09T23:30:05.561Z,3.39
2023-02-09T23:31:05.620Z,3.47
2023-02-09T23:32:05.626Z,3.04
2023-02-09T23:33:05.695Z,3.48
2023-02-09T23:34:05.665Z,3.68
2023-02-09T23:35:05.688Z,3.07
2023-02-09T23:36:05.711Z,3.29
2023-02-09T23:37:13.582Z,3.16
2023-02-09T23:38:06.726Z,3.33
2023-02-09T23:39:05.713Z,3.64
2023-02-09T23:40:05.718Z,2.90
2023-02-09T23:41:05.741Z,3.01
2023-02-09T23:42:05.692Z,3.55
2023-02-09T23:43:05.684Z,3.37
2023-02-09T23:44:05.676Z,3.01
2023-02-09T23:45:06.480Z,3.32
2023-02-09T23:46:05.724Z,3.17
2023-02-09T23:47:05.675Z,2.91
2023-02-09T23:48:05.649Z,3.12
2023-02-09T23:49:05.634Z,3.02
2023-02-09T23:50:05.638Z,2.97
2023-02-09T23:51:05.700Z,2.99
2023-02-09T23:52:05.620Z,2.93
2023-02-09T23:53:05.615Z,3.36
2023-02-09T23:54:05.619Z,3.94
2023-02-09T23:55:05.596Z,2.76
2023-02-09T23:56:05.578Z,3.32
2023-02-09T23:57:05.570Z,3.04
2023-02-09T23:58:05.568Z,3.52
2023-02-09T23:59:05.575Z,2.89
